Saltville, Virginia
Current Conditions -  °F | °C
As of 5:55 PM on Thursday 27 Nov 2014 (Local Time) from KJFZ Reporting Station
Light Snow Light Snow  
Wind Chill: 22°   Ceiling: 1100
Heat Index: 29°   Visibility: 7mi
Dew Point: 24°   Wind: 7mph
Humidity: 82%   Direction: 320°NW
Pressure: 30.2"   Gusts: NA
Location:  36.88°N, 81.76°W
Report Text: KJFZ 272255Z AUTO 32006KT 7SM -SN BKN011 OVC020 M01/M04 A3020 RMK AO2 T10151042
Loading
Personal Weather Stations






























Interactive Weather Map New forecast layout! Learn more

10-Day Weather Forecast

Advertisements
Track Severe Weather on mobile